^^
Saratoga-Weather Station Historical Data
Daily Summary for November 17, 2020 Units:  Metric    English   Both
Daily Weekly Monthly Yearly Custom
  High: Low: Average:
Temperature: 9.4 °C 8.6 °C 8.9 °C
Dew Point: 8 °C 7.2 °C 7.6 °C
Humidity: 92% 91% 91%
Wind Speed: 11.1km/h 0km/h 2km/h
Wind Gust: 17.7km/h - -
Wind- - WSW
Pressure: 1027.1 hPa 1024.4 hPa -
Precipitation: 0.0 mm    
Historical Graphs
 
 
Tabular Data for November 17, 2020
Time Temperature Dew Point Pressure Wind Wind Speed Wind Gust Humidity Rainfall Rate (Hourly) solar
00:04 8.9 °C 7.7 °C 1024.4 hPa West 1.4 km/h 3.2 km/h 92% 0.0 mm 0 W/m2
00:09 8.9 °C 7.7 °C 1024.7 hPa West 1.4 km/h 6.4 km/h 92% 0.0 mm 0 W/m2
00:14 8.9 °C 7.7 °C 1024.7 hPa WNW 1.4 km/h 4.8 km/h 92% 0.0 mm 0 W/m2
00:19 8.9 °C 7.7 °C 1024.7 hPa WNW 4.7 km/h 6.4 km/h 92% 0.0 mm 0 W/m2
00:24 9 °C 7.8 °C 1024.7 hPa WNW 4.7 km/h 4.8 km/h 92% 0.0 mm 0 W/m2
00:29 9 °C 7.8 °C 1024.7 hPa WNW 1.4 km/h 4.8 km/h 92% 0.0 mm 0 W/m2
00:34 9.1 °C 7.9 °C 1024.7 hPa Calm   6.4 km/h 92% 0.0 mm 0 W/m2
00:39 9.1 °C 7.9 °C 1024.7 hPa WNW 11.1 km/h 12.9 km/h 92% 0.0 mm 0 W/m2
00:44 9.1 °C 7.9 °C 1024.7 hPa WSW 7.9 km/h 9.7 km/h 92% 0.0 mm 0 W/m2
00:49 9.1 °C 7.9 °C 1024.7 hPa West 3.2 km/h 3.2 km/h 92% 0.0 mm 0 W/m2
00:54 9.1 °C 7.9 °C 1025.1 hPa West 3.2 km/h 3.2 km/h 92% 0.0 mm 0 W/m2
00:59 9.2 °C 8 °C 1024.7 hPa Calm   3.2 km/h 92% 0.0 mm 0 W/m2
01:04 9.2 °C 8 °C 1024.7 hPa NW 1.4 km/h 3.2 km/h 92% 0.0 mm 0 W/m2
01:09 9.2 °C 8 °C 1024.7 hPa Calm   4.8 km/h 92% 0.0 mm 0 W/m2
01:14 9.2 °C 8 °C 1024.7 hPa WNW 4.7 km/h 6.4 km/h 92% 0.0 mm 0 W/m2
01:19 9.2 °C 8 °C 1024.7 hPa Calm   3.2 km/h 92% 0.0 mm 0 W/m2
01:24 9.2 °C 8 °C 1025.1 hPa North 1.4 km/h 3.2 km/h 92% 0.0 mm 0 W/m2
01:29 9.2 °C 8 °C 1025.1 hPa West 3.2 km/h 9.7 km/h 92% 0.0 mm 0 W/m2
01:34 9.2 °C 7.8 °C 1025.1 hPa NNW 1.4 km/h 4.8 km/h 91% 0.0 mm 0 W/m2
01:39 9.2 °C 7.8 °C 1025.1 hPa WSW 3.2 km/h 4.8 km/h 91% 0.0 mm 0 W/m2
01:44 9.2 °C 7.8 °C 1025.1 hPa NNE 4.7 km/h 6.4 km/h 91% 0.0 mm 0 W/m2
01:49 9.2 °C 7.8 °C 1025.1 hPa West 1.4 km/h 3.2 km/h 91% 0.0 mm 0 W/m2
01:54 9.2 °C 7.8 °C 1025.1 hPa West 1.4 km/h 9.7 km/h 91% 0.0 mm 0 W/m2
01:59 9.2 °C 7.8 °C 1024.7 hPa Calm   3.2 km/h 91% 0.0 mm 0 W/m2
02:04 9.2 °C 7.8 °C 1024.7 hPa SE 1.4 km/h 8 km/h 91% 0.0 mm 0 W/m2
02:09 9.2 °C 7.8 °C 1024.7 hPa Calm   3.2 km/h 91% 0.0 mm 0 W/m2
02:14 9.2 °C 7.8 °C 1024.7 hPa East 1.4 km/h 4.8 km/h 91% 0.0 mm 0 W/m2
02:19 9.2 °C 7.8 °C 1025.1 hPa Calm   4.8 km/h 91% 0.0 mm 0 W/m2
02:24 9.2 °C 7.8 °C 1024.7 hPa South 1.4 km/h 8 km/h 91% 0.0 mm 0 W/m2
02:29 9.2 °C 7.8 °C 1025.1 hPa NW 3.2 km/h 3.2 km/h 91% 0.0 mm 0 W/m2
02:34 9.2 °C 7.8 °C 1024.7 hPa WNW 1.4 km/h 3.2 km/h 91% 0.0 mm 0 W/m2
02:39 9.2 °C 7.8 °C 1025.1 hPa WSW 4.7 km/h 9.7 km/h 91% 0.0 mm 0 W/m2
02:44 9.2 °C 7.8 °C 1025.1 hPa Calm   1.6 km/h 91% 0.0 mm 0 W/m2
02:49 9.2 °C 7.8 °C 1025.1 hPa NE 1.4 km/h 9.7 km/h 91% 0.0 mm 0 W/m2
02:54 9.1 °C 7.7 °C 1024.7 hPa NNW 1.4 km/h 4.8 km/h 91% 0.0 mm 0 W/m2
02:59 9.1 °C 7.7 °C 1024.7 hPa West 1.4 km/h 9.7 km/h 91% 0.0 mm 0 W/m2
03:04 9.1 °C 7.7 °C 1025.1 hPa Calm   3.2 km/h 91% 0.0 mm 0 W/m2
03:09 9 °C 7.6 °C 1025.1 hPa NW 1.4 km/h 3.2 km/h 91% 0.0 mm 0 W/m2
03:14 8.9 °C 7.5 °C 1024.7 hPa WNW 1.4 km/h 1.6 km/h 91% 0.0 mm 0 W/m2
03:19 8.9 °C 7.5 °C 1024.7 hPa Calm   1.6 km/h 91% 0.0 mm 0 W/m2
03:24 8.8 °C 7.4 °C 1024.7 hPa Calm   6.4 km/h 91% 0.0 mm 0 W/m2
03:29 8.8 °C 7.6 °C 1024.7 hPa ESE 3.2 km/h 3.2 km/h 92% 0.0 mm 0 W/m2
03:34 8.8 °C 7.6 °C 1024.7 hPa NNE 1.4 km/h 4.8 km/h 92% 0.0 mm 0 W/m2
03:39 8.8 °C 7.6 °C 1024.7 hPa Calm   4.8 km/h 92% 0.0 mm 0 W/m2
03:44 8.8 °C 7.6 °C 1024.7 hPa Calm   1.6 km/h 92% 0.0 mm 0 W/m2
03:49 8.7 °C 7.5 °C 1024.7 hPa ENE 3.2 km/h 4.8 km/h 92% 0.0 mm 0 W/m2
03:54 8.7 °C 7.5 °C 1024.7 hPa Calm     92% 0.0 mm 0 W/m2
03:59 8.7 °C 7.5 °C 1024.7 hPa WSW 4.7 km/h 9.7 km/h 92% 0.0 mm 0 W/m2
04:04 8.7 °C 7.5 °C 1024.7 hPa Calm   3.2 km/h 92% 0.0 mm 0 W/m2
04:09 8.7 °C 7.5 °C 1024.7 hPa NNW 1.4 km/h 9.7 km/h 92% 0.0 mm 0 W/m2
04:14 8.7 °C 7.5 °C 1024.7 hPa WSW 3.2 km/h 3.2 km/h 92% 0.0 mm 0 W/m2
04:19 8.7 °C 7.5 °C 1024.7 hPa North 3.2 km/h 6.4 km/h 92% 0.0 mm 0 W/m2
04:24 8.7 °C 7.5 °C 1024.7 hPa SW 3.2 km/h 4.8 km/h 92% 0.0 mm 0 W/m2
04:29 8.7 °C 7.5 °C 1024.7 hPa NW 3.2 km/h 6.4 km/h 92% 0.0 mm 0 W/m2
04:34 8.8 °C 7.6 °C 1024.7 hPa Calm   3.2 km/h 92% 0.0 mm 0 W/m2
04:39 8.8 °C 7.6 °C 1024.7 hPa Calm   3.2 km/h 92% 0.0 mm 0 W/m2
04:44 8.8 °C 7.4 °C 1024.7 hPa WNW 3.2 km/h 3.2 km/h 91% 0.0 mm 0 W/m2
04:49 8.8 °C 7.4 °C 1024.7 hPa Calm   3.2 km/h 91% 0.0 mm 0 W/m2
04:54 8.8 °C 7.4 °C 1025.1 hPa SSW 1.4 km/h 4.8 km/h 91% 0.0 mm 0 W/m2
04:59 8.8 °C 7.4 °C 1025.1 hPa SSE 1.4 km/h 1.6 km/h 91% 0.0 mm 0 W/m2
05:04 8.8 °C 7.4 °C 1025.1 hPa Calm   1.6 km/h 91% 0.0 mm 0 W/m2
05:09 8.8 °C 7.4 °C 1025.1 hPa Calm   3.2 km/h 91% 0.0 mm 0 W/m2
05:14 8.8 °C 7.4 °C 1025.1 hPa Calm   1.6 km/h 91% 0.0 mm 0 W/m2
05:19 8.8 °C 7.4 °C 1025.1 hPa WNW 6.4 km/h 6.4 km/h 91% 0.0 mm 0 W/m2
05:24 8.7 °C 7.3 °C 1025.1 hPa WSW 3.2 km/h 3.2 km/h 91% 0.0 mm 0 W/m2
05:29 8.7 °C 7.3 °C 1025.1 hPa WSW 3.2 km/h 6.4 km/h 91% 0.0 mm 0 W/m2
05:34 8.7 °C 7.3 °C 1025.1 hPa Calm   9.7 km/h 91% 0.0 mm 0 W/m2
05:39 8.7 °C 7.3 °C 1025.1 hPa WNW 1.4 km/h 4.8 km/h 91% 0.0 mm 0 W/m2
05:44 8.7 °C 7.3 °C 1025.1 hPa NW 1.4 km/h 4.8 km/h 91% 0.0 mm 0 W/m2
05:49 8.7 °C 7.3 °C 1025.1 hPa ESE 3.2 km/h 4.8 km/h 91% 0.0 mm 0 W/m2
05:54 8.7 °C 7.3 °C 1025.1 hPa WSW 1.4 km/h 4.8 km/h 91% 0.0 mm 0 W/m2
05:59 8.7 °C 7.3 °C 1025.1 hPa Calm   11.3 km/h 91% 0.0 mm 0 W/m2
06:04 8.6 °C 7.2 °C 1025.4 hPa Calm   9.7 km/h 91% 0.0 mm 0 W/m2
06:09 8.6 °C 7.2 °C 1025.4 hPa WNW 4.7 km/h 4.8 km/h 91% 0.0 mm 0 W/m2
06:14 8.6 °C 7.4 °C 1025.4 hPa Calm   4.8 km/h 92% 0.0 mm 0 W/m2
06:19 8.6 °C 7.4 °C 1025.1 hPa NW 3.2 km/h 4.8 km/h 92% 0.0 mm 0 W/m2
06:24 8.6 °C 7.4 °C 1025.4 hPa ESE 3.2 km/h 6.4 km/h 92% 0.0 mm 0 W/m2
06:29 8.6 °C 7.2 °C 1025.4 hPa Calm   4.8 km/h 91% 0.0 mm 0 W/m2
06:34 8.6 °C 7.2 °C 1025.4 hPa Calm   3.2 km/h 91% 0.0 mm 0 W/m2
06:39 8.6 °C 7.4 °C 1025.4 hPa SSE 3.2 km/h 6.4 km/h 92% 0.0 mm 0 W/m2
06:44 8.7 °C 7.5 °C 1025.4 hPa Calm   3.2 km/h 92% 0.0 mm 0 W/m2
06:49 8.7 °C 7.5 °C 1025.4 hPa Calm   3.2 km/h 92% 0.0 mm 0 W/m2
06:54 8.7 °C 7.3 °C 1025.4 hPa West 3.2 km/h 3.2 km/h 91% 0.0 mm 0 W/m2
06:59 8.8 °C 7.4 °C 1025.4 hPa West 1.4 km/h 6.4 km/h 91% 0.0 mm 0 W/m2
07:04 8.8 °C 7.4 °C 1025.7 hPa SW 1.4 km/h 4.8 km/h 91% 0.0 mm 0 W/m2
07:09 8.8 °C 7.4 °C 1025.7 hPa Calm   6.4 km/h 91% 0.0 mm 0 W/m2
07:14 8.8 °C 7.4 °C 1025.7 hPa SW 3.2 km/h 4.8 km/h 91% 0.0 mm 0 W/m2
07:19 8.8 °C 7.4 °C 1025.7 hPa NE 1.4 km/h 3.2 km/h 91% 0.0 mm 0 W/m2
07:24 8.8 °C 7.4 °C 1025.7 hPa West 4.7 km/h 4.8 km/h 91% 0.0 mm 0 W/m2
07:29 8.8 °C 7.4 °C 1025.7 hPa NW 3.2 km/h 4.8 km/h 91% 0.0 mm 0 W/m2
07:34 8.8 °C 7.4 °C 1025.7 hPa SSW 3.2 km/h 4.8 km/h 91% 0.0 mm 0 W/m2
07:39 8.8 °C 7.4 °C 1025.7 hPa West 3.2 km/h 17.7 km/h 91% 0.0 mm 0 W/m2
07:44 8.8 °C 7.4 °C 1025.7 hPa SW 4.7 km/h 4.8 km/h 91% 0.0 mm 0 W/m2
07:49 8.8 °C 7.4 °C 1026.1 hPa Calm   17.7 km/h 91% 0.0 mm 0 W/m2
07:54 8.8 °C 7.4 °C 1026.1 hPa ENE 3.2 km/h 6.4 km/h 91% 0.0 mm 0 W/m2
07:59 8.8 °C 7.4 °C 1026.1 hPa North 3.2 km/h 6.4 km/h 91% 0.0 mm 5 W/m2
08:04 8.8 °C 7.4 °C 1026.1 hPa Calm   4.8 km/h 91% 0.0 mm 7 W/m2
08:09 8.9 °C 7.5 °C 1026.4 hPa WNW 1.4 km/h 6.4 km/h 91% 0.0 mm 12 W/m2
08:14 8.9 °C 7.5 °C 1026.4 hPa NW 4.7 km/h 8 km/h 91% 0.0 mm 16 W/m2
08:19 8.9 °C 7.7 °C 1026.4 hPa West 4.7 km/h 8 km/h 92% 0.0 mm 21 W/m2
08:24 9 °C 7.8 °C 1026.8 hPa NW 4.7 km/h 6.4 km/h 92% 0.0 mm 21 W/m2
08:29 9 °C 7.6 °C 1026.8 hPa NNW 1.4 km/h 4.8 km/h 91% 0.0 mm 25 W/m2
08:34 9.1 °C 7.7 °C 1026.4 hPa East 1.4 km/h 3.2 km/h 91% 0.0 mm 30 W/m2
08:39 9.1 °C 7.7 °C 1026.8 hPa Calm   3.2 km/h 91% 0.0 mm 35 W/m2
08:44 9.1 °C 7.7 °C 1026.8 hPa East 1.4 km/h 6.4 km/h 91% 0.0 mm 39 W/m2
08:49 9.2 °C 7.8 °C 1026.8 hPa East 1.4 km/h 6.4 km/h 91% 0.0 mm 35 W/m2
08:54 9.2 °C 7.8 °C 1026.8 hPa WNW 4.7 km/h 6.4 km/h 91% 0.0 mm 44 W/m2
08:59 9.2 °C 7.8 °C 1027.1 hPa NW 1.4 km/h 6.4 km/h 91% 0.0 mm 46 W/m2
09:04 9.3 °C 7.9 °C 1026.8 hPa WNW 1.4 km/h 3.2 km/h 91% 0.0 mm 53 W/m2
09:09 9.3 °C 7.9 °C 1026.8 hPa Calm   4.8 km/h 91% 0.0 mm 56 W/m2
09:14 9.4 °C 8 °C 1027.1 hPa West 3.2 km/h 3.2 km/h 91% 0.0 mm 58 W/m2
09:19 9.4 °C 8 °C 1027.1 hPa NW 4.7 km/h 4.8 km/h 91% 0.0 mm 58 W/m2
09:24 9.4 °C 8 °C 1027.1 hPa South 3.2 km/h 4.8 km/h 91% 0.0 mm 65 W/m2
Juneau County Weather
Compliments of Weather Underground - 4 mb